Terminal Aerodrome Forecast
Issued by NWS

Home | Current Version | Previous Version | Text Only | Print | Product List | Glossary On
Versions: 1 2 3 4 5 6 7 8 9 10 11 12 13 14 15 16 17 18 19 20
000
FTUS42 KMLB 220547
TAFTIX
TAF
KTIX 220547Z 2206/2306 14004KT P6SM BKN250
     FM221500 13013G18KT P6SM VCSH BKN025 OVC050
      TEMPO 2217/2221 3SM SHRA OVC010
     FM222100 14008KT 5SM -RA BR OVC015
      TEMPO 2221/2301 2SM SHRA OVC008
     FM230100 11010KT P6SM SCT020 OVC050
      TEMPO 2301/2304 5SM SHRA BKN020 OVC040
     FM230500 12012KT P6SM SCT025 BKN050
      AMD NOT SKED TIL 221200=

USA.gov is the U.S. government's official web portal to all federal, state and local government web resources and services.